Time;durP1;ratioP1;P1;durP2;ratioP2;P2;SDS_P1;SDS_P2;PMS_P1;PMS_P2;Temp;Humidity;BMP_temperature;BMP_pressure;BME280_temperature;BME280_humidity;BME280_pressure;Samples;Min_cycle;Max_cycle;Signal;HPM_P1;HPM_P2
2021/11/14 00:01:20;;;;;;;;;106.75;92.50;;;;;2.49;78.98;102588.72;4934554;29;8866;-76
2021/11/14 00:04:16;;;;;;;;;126.00;109.25;;;;;2.32;78.75;102570.47;4933668;29;8885;-76
2021/11/14 00:07:12;;;;;;;;;113.00;98.25;;;;;2.48;78.61;102581.59;4933844;29;8866;-77
2021/11/14 00:10:10;;;;;;;;;118.25;107.00;;;;;2.37;78.53;102576.91;4934253;29;8860;-76
2021/11/14 00:13:06;;;;;;;;;124.25;109.50;;;;;2.33;78.72;102574.88;4938218;29;8861;-76
2021/11/14 00:16:01;;;;;;;;;133.50;116.00;;;;;2.35;78.27;102579.03;4925146;29;8839;-76
2021/11/14 00:18:57;;;;;;;;;139.75;118.75;;;;;2.17;79.76;102577.16;4937956;29;8853;-76
2021/11/14 00:21:53;;;;;;;;;145.50;129.00;;;;;2.16;79.76;102577.41;4937973;29;8876;-76
2021/11/14 00:24:48;;;;;;;;;121.00;107.25;;;;;2.21;78.99;102574.81;4937424;29;8838;-76
2021/11/14 00:27:46;;;;;;;;;146.75;130.00;;;;;2.26;78.87;102576.84;4937954;29;8861;-76
2021/11/14 00:30:42;;;;;;;;;144.50;125.75;;;;;2.22;78.98;102582.78;4934117;29;8929;-76
2021/11/14 00:33:42;;;;;;;;;119.50;103.25;;;;;2.15;79.62;102575.75;4937645;29;8933;-77
2021/11/14 00:36:38;;;;;;;;;125.00;115.00;;;;;2.19;79.42;102569.56;4937371;29;8842;-76
2021/11/14 00:39:34;;;;;;;;;118.25;102.75;;;;;2.01;80.12;102568.75;4906827;29;9575;-76
2021/11/14 00:42:30;;;;;;;;;119.25;109.75;;;;;2.13;80.12;102569.66;4918738;29;8836;-76
2021/11/14 00:45:27;;;;;;;;;107.75;90.50;;;;;2.11;79.83;102566.31;4918377;29;8939;-76
2021/11/14 00:48:23;;;;;;;;;110.75;95.00;;;;;2.09;80.12;102566.56;4926283;29;8862;-76
2021/11/14 00:51:25;;;;;;;;;132.00;115.75;;;;;1.93;80.37;102569.91;4937343;29;8862;-76
2021/11/14 00:54:21;;;;;;;;;130.25;117.50;;;;;2.02;80.21;102563.06;4937210;29;8838;-76
2021/11/14 00:57:16;;;;;;;;;115.75;100.50;;;;;1.80;80.86;102568.16;4937816;29;8858;-76
2021/11/14 01:00:17;;;;;;;;;160.00;137.50;;;;;1.66;82.16;102564.72;4937098;29;8850;-76
2021/11/14 01:03:14;;;;;;;;;151.25;122.50;;;;;1.72;81.46;102568.44;4936886;29;8894;-76
2021/11/14 01:06:09;;;;;;;;;163.50;141.50;;;;;1.74;81.70;102570.94;4936889;29;9708;-76
2021/11/14 01:09:05;;;;;;;;;134.00;123.00;;;;;1.79;80.89;102571.09;4936806;29;8838;-76
2021/11/14 01:12:01;;;;;;;;;125.50;112.75;;;;;1.83;80.81;102573.13;4936970;29;9631;-76
2021/11/14 01:14:56;;;;;;;;;136.25;119.75;;;;;1.84;80.42;102571.25;4924317;29;8846;-76
2021/11/14 01:17:52;;;;;;;;;126.50;110.50;;;;;1.87;79.73;102579.00;4936320;29;8838;-76
2021/11/14 01:20:52;;;;;;;;;129.00;114.25;;;;;1.88;78.74;102573.31;4936415;29;8846;-76
2021/11/14 01:23:50;;;;;;;;;127.00;106.75;;;;;1.76;79.63;102569.66;4935330;29;8842;-76
2021/11/14 01:26:46;;;;;;;;;122.25;105.75;;;;;1.79;79.34;102571.94;4937344;29;8842;-76
2021/11/14 01:29:42;;;;;;;;;132.75;116.50;;;;;1.82;79.48;102570.63;4936505;29;8850;-76
2021/11/14 01:32:39;;;;;;;;;128.00;117.75;;;;;1.85;79.26;102568.31;4936454;29;9593;-76
2021/11/14 01:35:36;;;;;;;;;142.50;126.00;;;;;1.84;78.78;102572.09;4923892;29;8897;-76
2021/11/14 01:38:34;;;;;;;;;137.50;118.00;;;;;1.70;78.46;102569.75;4936912;29;8838;-76
2021/11/14 01:41:29;;;;;;;;;129.00;115.00;;;;;1.43;80.23;102572.72;4923848;29;8846;-76
2021/11/14 01:44:25;;;;;;;;;135.25;117.25;;;;;1.57;80.29;102562.50;4936250;29;8850;-76
2021/11/14 01:47:20;;;;;;;;;144.00;124.00;;;;;1.57;80.35;102568.81;4934768;29;9005;-76
2021/11/14 01:50:19;;;;;;;;;139.50;122.25;;;;;1.46;79.93;102568.69;4936285;29;8834;-75
2021/11/14 01:53:15;;;;;;;;;149.75;115.50;;;;;1.60;80.49;102562.88;4936306;29;8865;-76
2021/11/14 01:56:15;;;;;;;;;127.75;112.50;;;;;1.54;79.79;102569.25;4936422;29;9588;-76
2021/11/14 01:59:11;;;;;;;;;152.25;125.25;;;;;1.55;80.98;102568.19;4935998;29;8838;-76
2021/11/14 02:02:06;;;;;;;;;115.50;99.25;;;;;1.20;81.65;102564.31;4935837;29;8838;-76
2021/11/14 02:05:04;;;;;;;;;129.50;116.75;;;;;1.17;82.58;102568.34;4936925;29;8855;-76
2021/11/14 02:08:02;;;;;;;;;122.00;115.00;;;;;1.44;82.47;102568.91;4935219;29;8929;-76
2021/11/14 02:10:58;;;;;;;;;124.50;110.25;;;;;1.36;82.08;102574.66;4936067;29;8826;-76
2021/11/14 02:13:54;;;;;;;;;120.75;111.50;;;;;1.31;82.55;102567.16;4935940;29;8843;-76
2021/11/14 02:16:50;;;;;;;;;128.50;116.25;;;;;1.39;82.70;102569.59;4922871;29;8839;-76
2021/11/14 02:19:51;;;;;;;;;143.75;123.00;;;;;1.31;83.06;102575.34;4935728;29;8838;-76
2021/11/14 02:22:47;;;;;;;;;150.25;138.25;;;;;1.42;83.49;102583.84;4935491;29;9067;-76
2021/11/14 02:25:44;;;;;;;;;143.50;114.25;;;;;1.36;83.41;102580.13;4936149;29;8897;-76
2021/11/14 02:28:41;;;;;;;;;154.50;128.00;;;;;1.32;83.58;102578.91;4935822;29;8846;-75
2021/11/14 02:31:38;;;;;;;;;162.00;136.50;;;;;1.36;83.52;102580.94;4936498;29;8834;-76
2021/11/14 02:34:34;;;;;;;;;151.75;125.00;;;;;1.42;83.73;102583.84;4934095;29;8866;-76
2021/11/14 02:37:29;;;;;;;;;158.00;139.00;;;;;1.38;83.56;102578.00;4935043;29;8846;-76
2021/11/14 02:40:26;;;;;;;;;156.75;132.75;;;;;1.47;82.59;102579.41;4935512;29;8850;-76
2021/11/14 02:43:22;;;;;;;;;141.25;130.75;;;;;1.68;81.73;102583.56;4935262;29;8866;-76
2021/11/14 02:46:19;;;;;;;;;139.25;122.00;;;;;1.59;82.13;102582.22;4935297;29;8830;-75
2021/11/14 02:49:15;;;;;;;;;150.25;133.75;;;;;1.56;82.53;102588.13;4935119;29;8838;-76
2021/11/14 02:52:11;;;;;;;;;160.75;132.25;;;;;1.41;83.04;102584.91;4935149;29;8826;-76
2021/11/14 02:55:10;;;;;;;;;167.25;139.75;;;;;1.46;82.95;102591.38;4936512;29;8842;-75
2021/11/14 02:58:06;;;;;;;;;158.00;133.00;;;;;1.51;82.99;102598.84;4936056;29;8987;-76
2021/11/14 03:01:12;;;;;;;;;154.50;129.75;;;;;1.57;82.66;102595.25;4935159;29;9694;-75
2021/11/14 03:04:18;;;;;;;;;138.25;123.50;;;;;1.37;83.39;102589.97;4935617;29;8850;-76
2021/11/14 03:07:13;;;;;;;;;139.75;119.00;;;;;1.52;82.92;102587.72;4922096;29;8897;-75
2021/11/14 03:10:11;;;;;;;;;167.00;144.25;;;;;1.59;83.48;102587.66;4934992;29;8921;-76
2021/11/14 03:13:14;;;;;;;;;120.25;113.00;;;;;1.46;83.90;102587.78;4935053;29;8851;-76
2021/11/14 03:16:14;;;;;;;;;119.75;115.00;;;;;1.45;82.89;102586.94;4928193;29;9553;-76
2021/11/14 03:19:11;;;;;;;;;139.00;126.25;;;;;1.36;83.55;102588.28;4917352;29;8860;-76
2021/11/14 03:22:06;;;;;;;;;126.50;112.25;;;;;1.59;82.80;102585.78;4915657;29;8960;-76
2021/11/14 03:25:02;;;;;;;;;133.00;121.00;;;;;1.51;82.43;102577.03;4921667;29;8850;-76
2021/11/14 03:27:59;;;;;;;;;150.00;123.75;;;;;1.43;82.95;102583.63;4934042;29;8853;-76
2021/11/14 03:30:57;;;;;;;;;145.50;130.50;;;;;1.34;83.29;102579.50;4934547;29;8850;-76
2021/11/14 03:33:52;;;;;;;;;146.50;131.75;;;;;1.54;83.38;102580.16;4921625;29;8838;-76
2021/11/14 03:36:50;;;;;;;;;93.00;65.50;;;;;1.50;83.51;102581.66;4934113;29;8893;-75
2021/11/14 03:39:46;;;;;;;;;217.25;190.50;;;;;1.85;85.03;102572.94;4934587;29;8845;-75
2021/11/14 03:42:42;;;;;;;;;192.00;170.00;;;;;2.01;85.63;102580.50;4921859;29;8835;-75
2021/11/14 03:45:39;;;;;;;;;163.00;149.50;;;;;2.08;84.81;102583.16;4930968;29;8846;-77
2021/11/14 03:48:37;;;;;;;;;171.75;159.00;;;;;2.01;83.50;102577.78;4933996;29;8830;-76
2021/11/14 03:51:33;;;;;;;;;160.25;151.50;;;;;1.76;83.31;102583.28;4933359;29;8877;-76
2021/11/14 03:54:30;;;;;;;;;172.25;149.50;;;;;1.85;83.78;102578.38;4932839;29;8988;-75
2021/11/14 03:57:26;;;;;;;;;171.25;155.00;;;;;1.83;84.13;102591.41;4932715;29;8857;-76
2021/11/14 04:00:29;;;;;;;;;138.75;123.50;;;;;1.85;84.18;102587.41;4919079;29;8853;-76
2021/11/14 04:03:27;;;;;;;;;178.75;163.00;;;;;1.93;84.27;102589.84;4932397;29;8877;-76
2021/11/14 04:06:23;;;;;;;;;177.00;152.25;;;;;1.86;83.60;102589.06;4918394;29;8849;-76
2021/11/14 04:09:18;;;;;;;;;163.25;152.25;;;;;1.84;84.34;102599.38;4930496;29;8830;-76
2021/11/14 04:12:14;;;;;;;;;146.00;130.50;;;;;1.94;83.22;102593.41;4937245;29;8870;-76
2021/11/14 04:15:13;;;;;;;;;120.25;104.25;;;;;1.97;83.61;102594.84;4937113;29;8995;-76
2021/11/14 04:18:08;;;;;;;;;131.75;114.75;;;;;2.11;83.24;102593.63;4936872;29;8835;-76
2021/11/14 04:21:06;;;;;;;;;128.75;107.00;;;;;1.92;83.08;102590.06;4937175;29;8834;-76
2021/11/14 04:24:01;;;;;;;;;112.50;94.25;;;;;1.85;84.57;102583.84;4936105;29;8838;-76
2021/11/14 04:26:57;;;;;;;;;101.67;75.33;;;;;2.06;85.03;102607.94;4936636;29;8843;-76
2021/11/14 04:29:53;;;;;;;;;97.33;77.00;;;;;2.10;85.79;102595.53;4921402;29;8861;-76
2021/11/14 04:32:49;;;;;;;;;96.33;75.67;;;;;2.38;85.50;102602.34;4933331;29;8838;-75
2021/11/14 04:35:46;;;;;;;;;109.33;78.67;;;;;2.37;84.78;102603.38;4932470;29;8819;-76
2021/11/14 04:38:42;;;;;;;;;100.00;76.00;;;;;2.41;84.42;102610.06;4932555;29;8842;-77
2021/11/14 04:41:38;;;;;;;;;82.50;59.50;;;;;2.42;84.26;102611.72;4930590;29;8834;-77
2021/11/14 04:44:34;;;;;;;;;99.50;79.75;;;;;2.53;84.58;102618.28;4917309;29;8858;-76
2021/11/14 04:47:30;;;;;;;;;104.50;85.75;;;;;2.59;83.92;102618.22;4917452;29;8835;-76
2021/11/14 04:50:26;;;;;;;;;91.67;72.67;;;;;2.51;83.58;102624.81;4936380;29;8838;-76
2021/11/14 04:53:22;;;;;;;;;102.75;78.25;;;;;2.46;84.12;102621.97;4937602;29;8838;-76
2021/11/14 04:56:17;;;;;;;;;97.00;76.00;;;;;2.53;84.01;102634.69;4937549;29;8842;-75
2021/11/14 04:59:14;;;;;;;;;93.00;74.00;;;;;2.62;83.36;102647.00;4937341;29;8858;-75
2021/11/14 05:02:09;;;;;;;;;83.67;66.33;;;;;2.63;83.06;102644.03;4921957;29;8870;-76
2021/11/14 05:05:06;;;;;;;;;93.00;75.00;;;;;2.62;82.96;102656.03;4932744;29;8865;-76
2021/11/14 05:08:06;;;;;;;;;86.00;68.00;;;;;2.74;82.41;102656.06;4920616;29;8834;-76
2021/11/14 05:11:03;;;;;;;;;62.00;50.67;;;;;2.90;81.92;102660.88;4919480;29;8827;-76
2021/11/14 05:13:58;;;;;;;;;81.33;65.33;;;;;2.93;81.81;102663.16;4931553;29;8861;-76
2021/11/14 05:16:54;;;;;;;;;97.00;76.33;;;;;2.91;81.99;102669.91;4917574;28;10323;-76
2021/11/14 05:19:50;;;;;;;;;109.67;91.33;;;;;2.71;82.52;102668.28;4936750;29;8834;-76
2021/11/14 05:22:45;;;;;;;;;109.25;85.00;;;;;2.82;81.73;102671.31;4923925;29;8838;-77
2021/11/14 05:25:42;;;;;;;;;132.50;101.75;;;;;2.56;82.08;102667.84;4936545;29;8850;-76
2021/11/14 05:28:38;;;;;;;;;126.00;106.00;;;;;2.39;83.85;102669.53;4936614;29;8842;-78
2021/11/14 05:31:34;;;;;;;;;109.75;93.25;;;;;2.66;83.34;102676.34;4936323;29;8835;-77
2021/11/14 05:34:30;;;;;;;;;100.50;81.25;;;;;2.82;82.26;102674.88;4935713;29;8854;-76
2021/11/14 05:37:25;;;;;;;;;97.67;76.33;;;;;2.83;81.79;102673.81;4918166;29;8867;-75
2021/11/14 05:40:21;;;;;;;;;113.50;96.50;;;;;2.89;81.93;102680.25;4918311;29;8866;-76
2021/11/14 05:43:17;;;;;;;;;109.25;91.25;;;;;2.78;82.25;102679.16;4936364;29;8838;-78
2021/11/14 05:46:13;;;;;;;;;90.00;69.33;;;;;3.01;81.38;102690.19;4936250;29;8850;-78
2021/11/14 05:49:09;;;;;;;;;110.50;95.25;;;;;3.13;81.04;102681.19;4936338;29;8957;-76
2021/11/14 05:52:05;;;;;;;;;111.00;97.50;;;;;3.31;80.30;102687.44;4923546;29;8847;-76
2021/11/14 05:55:01;;;;;;;;;115.00;100.00;;;;;3.32;80.14;102682.78;4936305;29;8854;-77
2021/11/14 06:03:59;;;;;;;;;95.00;75.00;;;;;3.33;80.21;102682.56;4916856;29;8864;-77
2021/11/14 06:06:55;;;;;;;;;95.33;72.33;;;;;3.56;79.43;102686.41;4917269;29;8836;-77
2021/11/14 06:09:50;;;;;;;;;83.33;67.33;;;;;3.60;79.34;102684.84;4916201;29;8860;-77
2021/11/14 06:12:47;;;;;;;;;78.33;64.00;;;;;3.81;78.95;102688.94;4916848;29;8871;-76
2021/11/14 06:15:43;;;;;;;;;73.67;59.00;;;;;3.95;78.50;102684.06;4904097;29;8836;-75
2021/11/14 06:18:38;;;;;;;;;65.33;55.00;;;;;4.06;78.07;102686.78;4922042;29;8834;-76
2021/11/14 06:21:34;;;;;;;;;68.00;56.33;;;;;4.08;77.23;102686.56;4935083;29;8859;-76
2021/11/14 06:24:29;;;;;;;;;66.67;56.00;;;;;4.04;77.37;102690.84;4934684;29;9561;-76
2021/11/14 06:27:25;;;;;;;;;63.67;53.67;;;;;4.38;76.92;102694.66;4930704;29;9537;-75
2021/11/14 06:30:22;;;;;;;;;74.67;58.33;;;;;4.16;76.69;102695.25;4933845;29;8850;-76
2021/11/14 06:33:19;;;;;;;;;77.33;62.67;;;;;4.49;75.76;102695.69;4930731;29;11551;-75
2021/11/14 06:36:15;;;;;;;;;71.67;60.33;;;;;4.50;75.62;102695.44;4925597;29;8861;-76
2021/11/14 06:39:11;;;;;;;;;72.00;56.33;;;;;4.63;75.66;102699.84;4934360;29;11555;-76
2021/11/14 06:42:07;;;;;;;;;74.00;61.67;;;;;4.68;75.39;102699.94;4935410;29;8842;-77
2021/11/14 06:45:04;;;;;;;;;80.33;59.67;;;;;4.86;75.13;102697.03;4934950;29;8870;-76
2021/11/14 06:47:59;;;;;;;;;74.00;59.67;;;;;5.05;74.59;102697.66;4933794;29;8842;-75
2021/11/14 06:50:55;;;;;;;;;69.00;58.00;;;;;5.14;74.41;102701.69;4919380;29;8823;-76
2021/11/14 06:53:50;;;;;;;;;77.00;59.33;;;;;5.38;73.90;102688.69;4919568;29;11710;-76
2021/11/14 06:56:46;;;;;;;;;76.33;61.33;;;;;5.49;73.22;102686.94;4916773;29;12418;-76
2021/11/14 06:59:41;;;;;;;;;70.67;57.67;;;;;5.68;73.06;102680.16;4916172;29;12393;-77
2021/11/14 07:02:37;;;;;;;;;82.33;64.33;;;;;6.00;72.78;102691.38;4916110;29;12353;-78
2021/11/14 07:05:33;;;;;;;;;72.25;59.00;;;;;6.10;71.46;102682.47;4916284;29;8895;-77
2021/11/14 07:08:28;;;;;;;;;70.67;56.33;;;;;6.15;70.60;102687.22;4922134;29;11665;-75
2021/11/14 07:11:24;;;;;;;;;63.75;51.00;;;;;6.30;70.52;102685.50;4921828;29;11552;-76
2021/11/14 07:14:24;;;;;;;;;65.50;52.75;;;;;6.25;70.42;102682.69;4921942;29;12322;-76
2021/11/14 07:17:22;;;;;;;;;60.25;50.75;;;;;6.31;70.90;102684.41;4934715;29;11562;-76
2021/11/14 07:20:18;;;;;;;;;61.50;47.25;;;;;6.33;71.36;102679.50;4935801;29;11553;-77
2021/11/14 07:23:15;;;;;;;;;63.75;53.00;;;;;6.63;70.58;102690.06;4938086;29;11575;-78
2021/11/14 07:26:10;;;;;;;;;58.50;46.00;;;;;6.82;69.53;102693.31;4938627;29;11535;-77
2021/11/14 07:29:06;;;;;;;;;55.25;47.50;;;;;7.06;69.56;102687.53;4937822;29;11557;-78
2021/11/14 07:32:02;;;;;;;;;59.00;48.75;;;;;7.02;69.44;102683.63;4938597;29;12272;-77
2021/11/14 07:34:57;;;;;;;;;56.50;48.25;;;;;7.23;69.11;102683.59;4938076;29;11559;-77
2021/11/14 07:37:53;;;;;;;;;51.00;45.00;;;;;7.38;68.13;102680.16;4939041;29;11627;-78
2021/11/14 07:40:50;;;;;;;;;48.75;42.25;;;;;7.56;68.23;102683.63;4938980;29;11521;-78
2021/11/14 07:43:45;;;;;;;;;58.25;49.25;;;;;7.69;68.36;102680.44;4937358;29;11554;-77
2021/11/14 07:46:41;;;;;;;;;52.50;44.50;;;;;7.76;67.48;102679.13;4925552;29;11706;-78
2021/11/14 07:49:37;;;;;;;;;50.50;43.75;;;;;8.05;67.33;102678.75;4938610;29;12367;-77
2021/11/14 07:52:33;;;;;;;;;50.00;41.50;;;;;7.79;67.02;102675.00;4935392;29;11646;-77
2021/11/14 07:55:29;;;;;;;;;54.75;46.50;;;;;8.18;66.80;102670.00;4921681;29;11529;-75
2021/11/14 07:58:24;;;;;;;;;49.00;42.50;;;;;8.24;66.73;102676.41;4932846;29;11558;-75
2021/11/14 08:01:20;;;;;;;;;58.00;46.25;;;;;8.74;71.24;102675.84;4935287;29;11599;-76
2021/11/14 08:04:17;;;;;;;;;50.50;42.25;;;;;9.32;70.92;102670.19;4937576;29;11557;-76
2021/11/14 08:07:12;;;;;;;;;57.75;46.75;;;;;9.54;66.09;102672.69;4937631;29;11545;-75
2021/11/14 08:10:09;;;;;;;;;51.25;42.25;;;;;9.71;66.83;102668.53;4936818;29;11593;-77
2021/11/14 08:13:06;;;;;;;;;43.00;40.00;;;;;10.15;67.10;102669.88;4937723;29;11689;-77
2021/11/14 08:16:03;;;;;;;;;38.25;34.50;;;;;10.26;66.66;102669.59;4937094;29;11557;-77
2021/11/14 08:18:59;;;;;;;;;55.75;47.25;;;;;11.13;76.42;102661.72;4938420;29;11517;-78
2021/11/14 08:21:55;;;;;;;;;51.75;44.25;;;;;11.35;68.52;102655.78;4937123;29;12231;-77
2021/11/14 08:24:51;;;;;;;;;62.75;49.50;;;;;12.03;74.82;102654.06;4937574;29;11517;-77
2021/11/14 08:27:47;;;;;;;;;39.25;35.75;;;;;11.95;68.56;102650.00;4937755;29;11487;-77
2021/11/14 08:30:43;;;;;;;;;35.75;35.00;;;;;11.68;65.03;102645.78;4937706;29;11492;-78
2021/11/14 08:33:38;;;;;;;;;67.00;48.75;;;;;12.30;72.57;102647.97;4937026;29;11306;-79
2021/11/14 08:36:35;;;;;;;;;28.00;28.00;;;;;12.20;61.26;102651.69;4925334;29;11555;-78
2021/11/14 08:39:31;;;;;;;;;33.50;33.50;;;;;12.43;66.39;102642.53;4937463;29;10759;-79
2021/11/14 08:42:26;;;;;;;;;34.75;33.75;;;;;12.37;62.87;102645.66;4937195;29;10829;-78
2021/11/14 08:45:24;;;;;;;;;32.50;32.50;;;;;12.81;64.23;102639.84;4937016;29;10691;-78
2021/11/14 08:48:19;;;;;;;;;37.75;35.25;;;;;12.65;60.12;102635.59;4936839;29;10669;-78
2021/11/14 08:51:15;;;;;;;;;31.25;29.50;;;;;12.63;58.04;102632.28;4937868;29;10789;-78
2021/11/14 08:54:11;;;;;;;;;26.50;24.50;;;;;12.75;56.40;102627.97;4937400;29;11377;-78
2021/11/14 08:57:09;;;;;;;;;38.00;35.25;;;;;12.35;56.74;102626.53;4925040;29;10558;-77
2021/11/14 09:00:07;;;;;;;;;35.50;34.50;;;;;12.38;55.80;102630.66;4924744;29;10677;-78
2021/11/14 09:03:03;;;;;;;;;37.75;36.50;;;;;12.56;56.10;102635.41;4917378;29;10763;-77
2021/11/14 09:05:59;;;;;;;;;34.50;34.00;;;;;12.92;56.26;102627.44;4936965;29;10764;-77
2021/11/14 09:08:55;;;;;;;;;35.00;35.00;;;;;12.82;55.02;102629.56;4924358;29;10804;-76
2021/11/14 09:11:53;;;;;;;;;46.50;42.00;;;;;13.20;65.26;102616.50;4936584;29;10611;-78
2021/11/14 09:14:49;;;;;;;;;42.00;38.00;;;;;13.38;56.64;102618.44;4936653;29;11001;-73
2021/11/14 09:17:45;;;;;;;;;26.25;26.25;;;;;13.81;55.67;102613.50;4932273;29;10980;-69
2021/11/14 09:20:41;;;;;;;;;31.00;30.75;;;;;13.98;54.66;102612.91;4936628;29;11007;-70
2021/11/14 09:23:38;;;;;;;;;37.25;34.75;;;;;14.02;53.92;102613.09;4936771;29;10245;-69
2021/11/14 09:26:34;;;;;;;;;26.25;26.25;;;;;13.78;52.10;102611.31;4936472;29;10509;-69
2021/11/14 09:29:31;;;;;;;;;35.25;34.00;;;;;13.88;52.78;102607.56;4936517;29;9941;-70
2021/11/14 09:32:27;;;;;;;;;31.00;30.00;;;;;14.28;52.76;102599.53;4936542;29;10183;-70
2021/11/14 09:35:23;;;;;;;;;38.25;36.25;;;;;14.41;54.55;102602.28;4936582;29;10036;-69
2021/11/14 09:38:19;;;;;;;;;41.25;37.00;;;;;14.50;51.93;102605.22;4936354;29;10063;-69
2021/11/14 09:41:15;;;;;;;;;25.25;25.25;;;;;14.71;50.95;102595.25;4936332;29;10134;-70
2021/11/14 09:44:14;;;;;;;;;44.00;38.75;;;;;14.51;53.72;102587.38;4935920;29;9534;-69
2021/11/14 09:47:10;;;;;;;;;34.25;33.75;;;;;14.72;51.42;102584.94;4923424;29;10312;-69
2021/11/14 09:50:07;;;;;;;;;22.25;22.25;;;;;14.56;50.38;102572.50;4936270;29;9880;-70
2021/11/14 09:53:04;;;;;;;;;34.50;33.25;;;;;14.62;50.17;102577.66;4936026;29;9653;-69
2021/11/14 09:56:01;;;;;;;;;26.00;26.00;;;;;14.96;52.25;102571.56;4936810;29;9738;-70
2021/11/14 09:58:57;;;;;;;;;41.25;37.25;;;;;15.11;49.37;102567.59;4936071;29;9607;-70
2021/11/14 10:01:54;;;;;;;;;30.00;30.00;;;;;15.25;48.39;102559.97;4935085;29;9561;-70
2021/11/14 10:04:50;;;;;;;;;27.67;27.33;;;;;15.15;49.04;102551.88;4935756;29;9431;-71
2021/11/14 10:08:04;;;;;;;;;26.67;26.67;;;;;14.81;48.73;102543.25;4935847;29;9344;-70
2021/11/14 10:10:59;;;;;;;;;27.00;27.00;;;;;14.88;49.19;102540.88;4935601;29;9460;-70
2021/11/14 10:13:55;;;;;;;;;25.67;24.00;;;;;15.22;48.72;102543.91;4935602;29;9393;-70
2021/11/14 10:16:50;;;;;;;;;31.50;30.25;;;;;15.29;48.83;102544.28;4936605;29;9409;-71
2021/11/14 10:20:10;;;;;;;;;35.75;31.25;;;;;15.19;48.49;102546.50;4935603;29;9563;-71
2021/11/14 10:23:10;;;;;;;;;31.00;30.33;;;;;15.32;51.12;102534.44;4935561;29;9544;-70
2021/11/14 10:26:10;;;;;;;;;26.67;25.67;;;;;15.51;48.43;102531.44;4935420;29;9888;-70
2021/11/14 10:29:12;;;;;;;;;21.67;21.67;;;;;15.47;47.85;102528.47;4936273;29;9401;-71
2021/11/14 10:32:15;;;;;;;;;21.00;20.67;;;;;15.53;46.98;102534.72;4934286;29;9090;-72
2021/11/14 10:35:11;;;;;;;;;24.67;23.67;;;;;15.78;48.21;102528.47;4916176;29;9467;-73
2021/11/14 10:38:14;;;;;;;;;22.33;22.33;;;;;15.77;46.20;102520.44;4921670;29;9184;-70
2021/11/14 10:41:13;;;;;;;;;26.00;24.67;;;;;15.91;45.00;102514.75;4919932;29;9064;-71
2021/11/14 10:44:18;;;;;;;;;21.33;19.67;;;;;15.57;44.89;102513.44;4934713;29;9180;-71
2021/11/14 10:47:13;;;;;;;;;30.00;28.00;;;;;16.12;45.04;102504.63;4935063;29;9214;-71
2021/11/14 10:50:13;;;;;;;;;29.33;28.00;;;;;16.21;44.93;102511.06;4934090;29;9288;-71
2021/11/14 10:53:12;;;;;;;;;22.33;21.33;;;;;15.33;46.22;102505.41;4932137;29;9247;-72
2021/11/14 10:56:11;;;;;;;;;22.33;22.33;;;;;15.55;45.65;102501.75;4934116;29;9309;-72
2021/11/14 10:59:07;;;;;;;;;27.33;27.33;;;;;15.60;45.59;102496.06;4931216;29;9266;-72
2021/11/14 11:02:07;;;;;;;;;24.00;23.67;;;;;16.09;45.46;102497.72;4933357;29;9401;-72
2021/11/14 11:05:16;;;;;;;;;19.00;18.67;;;;;16.32;44.30;102492.81;4929015;29;9172;-71
2021/11/14 11:08:18;;;;;;;;;17.00;17.00;;;;;15.79;44.87;102485.47;4930312;29;9321;-70
2021/11/14 11:11:14;;;;;;;;;21.33;21.00;;;;;15.51;45.39;102493.22;4934535;29;9282;-72
2021/11/14 11:14:10;;;;;;;;;14.00;14.00;;;;;15.78;44.22;102491.38;4934763;29;9082;-71
2021/11/14 11:17:06;;;;;;;;;19.00;17.67;;;;;16.33;43.95;102497.28;4927661;29;9168;-71
2021/11/14 11:20:10;;;;;;;;;20.33;19.00;;;;;16.09;43.54;102488.53;4933645;29;9112;-71
2021/11/14 11:23:08;;;;;;;;;15.75;15.75;;;;;16.17;43.52;102493.28;4927918;29;8927;-71
2021/11/14 11:26:05;;;;;;;;;16.00;15.33;;;;;15.85;43.78;102483.38;4933884;29;9065;-71
2021/11/14 11:29:12;;;;;;;;;22.33;20.33;;;;;15.98;43.87;102489.97;4934100;29;8949;-72
2021/11/14 11:32:08;;;;;;;;;13.67;13.33;;;;;15.89;43.71;102483.56;4933599;29;9003;-70
2021/11/14 11:35:05;;;;;;;;;18.33;18.33;;;;;15.84;44.60;102490.09;4929775;29;8939;-70
2021/11/14 11:38:02;;;;;;;;;19.00;19.00;;;;;15.71;44.19;102491.03;4932888;29;9186;-71
2021/11/14 11:40:59;;;;;;;;;26.00;25.33;;;;;15.26;45.38;102488.34;4933866;29;9166;-71
2021/11/14 11:43:56;;;;;;;;;17.67;17.67;;;;;15.10;46.74;102487.06;4934027;29;9258;-71
2021/11/14 11:46:30;;;;;;;;;21.67;21.00;;;;;14.59;46.61;102491.97;4934547;29;9452;-72
2021/11/14 11:49:27;;;;;;;;;19.50;18.50;;;;;14.84;46.72;102498.06;4934051;29;9098;-71
2021/11/14 11:51:58;;;;;;;;;17.33;17.33;;;;;14.87;46.14;102494.63;4934901;29;9554;-71
2021/11/14 11:54:32;;;;;;;;;20.67;20.33;;;;;14.97;46.62;102488.81;4935007;29;9451;-72
2021/11/14 11:57:14;;;;;;;;;18.75;17.00;;;;;14.69;47.14;102494.50;4934979;29;9507;-72
2021/11/14 12:00:10;;;;;;;;;25.00;20.33;;;;;14.68;46.28;102497.59;4933814;29;9619;-71
2021/11/14 12:02:39;;;;;;;;;24.50;24.00;;;;;14.87;47.33;102489.03;4918379;29;9377;-71
2021/11/14 12:05:10;;;;;;;;;22.25;22.00;;;;;14.95;46.74;102485.50;4911891;29;9645;-71
2021/11/14 12:07:53;;;;;;;;;22.25;22.00;;;;;15.02;45.63;102486.69;4936885;29;9466;-72
2021/11/14 12:10:57;;;;;;;;;41.00;36.50;;;;;15.00;46.24;102486.19;4937977;29;9661;-72
2021/11/14 12:13:35;;;;;;;;;26.50;25.50;;;;;14.50;46.40;102485.50;4921969;29;9893;-72
2021/11/14 12:16:32;;;;;;;;;22.50;22.00;;;;;14.52;46.96;102477.66;4925035;29;9653;-72
2021/11/14 12:19:02;;;;;;;;;19.50;19.50;;;;;14.38;47.32;102479.63;4921595;29;10314;-73
2021/11/14 12:21:30;;;;;;;;;24.25;24.25;;;;;14.41;47.31;102488.16;4906573;29;9553;-72
2021/11/14 12:24:28;;;;;;;;;24.75;23.25;;;;;14.41;47.36;102478.97;4925082;29;9574;-72
2021/11/14 12:27:31;;;;;;;;;20.33;20.33;;;;;14.63;47.25;102481.81;4937782;29;9844;-72
2021/11/14 12:30:28;;;;;;;;;21.50;21.50;;;;;14.32;47.60;102483.63;4937529;29;9590;-72
2021/11/14 12:33:26;;;;;;;;;18.50;18.50;;;;;14.15;48.50;102478.72;4934264;29;9587;-72
2021/11/14 12:36:37;;;;;;;;;23.75;20.25;;;;;14.26;48.05;102479.31;4937464;29;9787;-72
2021/11/14 12:39:35;;;;;;;;;27.50;27.50;;;;;14.09;48.94;102475.22;4918361;29;10093;-72
2021/11/14 12:42:31;;;;;;;;;21.00;21.00;;;;;13.83;49.69;102474.13;4918647;29;9936;-72
2021/11/14 12:45:07;;;;;;;;;21.25;20.50;;;;;13.70;50.40;102470.22;4902296;29;9964;-72
2021/11/14 12:48:11;;;;;;;;;19.00;19.00;;;;;13.72;50.24;102465.16;4918169;29;9880;-72
2021/11/14 12:51:32;;;;;;;;;26.50;22.00;;;;;13.60;50.97;102451.78;4918951;29;9950;-71
2021/11/14 12:54:28;;;;;;;;;20.50;20.50;;;;;13.69;51.16;102457.44;4922338;29;10129;-72
2021/11/14 12:57:42;;;;;;;;;31.75;30.00;;;;;13.76;49.75;102455.09;4934565;29;9887;-71
2021/11/14 13:00:46;;;;;;;;;28.50;27.75;;;;;13.94;48.92;102458.88;4930489;29;10293;-72
2021/11/14 13:03:43;;;;;;;;;43.25;33.75;;;;;14.03;49.27;102454.25;4929388;28;10284;-72
2021/11/14 13:06:40;;;;;;;;;26.00;26.00;;;;;13.86;49.82;102456.81;4940214;29;10312;-72
2021/11/14 13:09:45;;;;;;;;;27.00;27.00;;;;;13.75;48.89;102460.97;4929017;29;10040;-72
2021/11/14 13:12:46;;;;;;;;;43.00;34.75;;;;;13.82;49.37;102455.81;4929767;28;9952;-72
2021/11/14 13:15:53;;;;;;;;;74.50;56.50;;;;;13.59;49.68;102457.66;4930843;29;10336;-72
2021/11/14 13:18:35;;;;;;;;;47.50;41.50;;;;;13.41;50.88;102451.03;4910050;28;11587;-72
2021/11/14 13:21:23;;;;;;;;;90.00;75.00;;;;;13.49;50.40;102461.44;4936732;29;11010;-73
2021/11/14 13:24:19;;;;;;;;;65.00;51.75;;;;;13.38;50.23;102459.19;4931958;29;11610;-72
2021/11/14 13:26:49;;;;;;;;;78.25;54.50;;;;;13.35;50.09;102455.06;4935777;29;11693;-72
2021/11/14 13:29:48;;;;;;;;;33.25;31.25;;;;;13.27;49.98;102458.56;4934946;29;11048;-72
2021/11/14 13:32:46;;;;;;;;;33.50;31.25;;;;;13.09;50.96;102461.06;4935595;29;10372;-72